sensor_id;sensor_type;location;lat;lon;timestamp;pressure;altitude;pressure_sealevel;temperature;humidity
41636;BME280;27623;51.966;4.602;2023-07-13T00:02:04;65347.19;;;19.66;90.77
41636;BME280;27623;51.966;4.602;2023-07-13T00:04:30;65344.00;;;19.72;90.17
41636;BME280;27623;51.966;4.602;2023-07-13T00:06:55;65325.25;;;19.62;90.89
41636;BME280;27623;51.966;4.602;2023-07-13T00:09:21;65337.53;;;19.52;91.36
41636;BME280;27623;51.966;4.602;2023-07-13T00:11:51;65368.22;;;19.71;90.43
41636;BME280;27623;51.966;4.602;2023-07-13T00:14:17;65383.66;;;19.78;89.83
41636;BME280;27623;51.966;4.602;2023-07-13T00:16:42;65371.56;;;19.67;90.08
41636;BME280;27623;51.966;4.602;2023-07-13T00:19:11;65374.88;;;19.70;89.52
41636;BME280;27623;51.966;4.602;2023-07-13T00:21:40;65359.13;;;19.74;88.56
41636;BME280;27623;51.966;4.602;2023-07-13T00:24:07;65369.25;;;19.79;88.21
41636;BME280;27623;51.966;4.602;2023-07-13T00:26:32;65373.59;;;19.66;88.69
41636;BME280;27623;51.966;4.602;2023-07-13T00:28:58;65384.75;;;19.79;87.60
41636;BME280;27623;51.966;4.602;2023-07-13T00:31:24;65366.19;;;19.71;87.70
41636;BME280;27623;51.966;4.602;2023-07-13T00:33:50;65407.44;;;19.85;87.34
41636;BME280;27623;51.966;4.602;2023-07-13T00:36:16;65416.81;;;19.94;86.16
41636;BME280;27623;51.966;4.602;2023-07-13T00:38:42;65361.47;;;19.79;85.90
41636;BME280;27623;51.966;4.602;2023-07-13T00:41:10;65357.09;;;19.75;86.13
41636;BME280;27623;51.966;4.602;2023-07-13T00:43:36;65328.94;;;19.63;86.45
41636;BME280;27623;51.966;4.602;2023-07-13T00:48:34;65369.91;;;19.65;85.91
41636;BME280;27623;51.966;4.602;2023-07-13T00:51:02;65344.19;;;19.51;86.26
41636;BME280;27623;51.966;4.602;2023-07-13T00:53:29;65330.31;;;19.52;86.86
41636;BME280;27623;51.966;4.602;2023-07-13T00:55:56;65320.84;;;19.58;86.64
41636;BME280;27623;51.966;4.602;2023-07-13T00:58:23;65324.69;;;19.62;86.82
41636;BME280;27623;51.966;4.602;2023-07-13T01:00:50;65350.34;;;19.66;87.75
41636;BME280;27623;51.966;4.602;2023-07-13T01:03:16;65374.50;;;19.72;88.34
41636;BME280;27623;51.966;4.602;2023-07-13T01:05:47;65347.59;;;19.64;90.17
41636;BME280;27623;51.966;4.602;2023-07-13T01:08:17;65327.50;;;19.57;91.30
41636;BME280;27623;51.966;4.602;2023-07-13T01:10:54;65334.31;;;19.59;91.37
41636;BME280;27623;51.966;4.602;2023-07-13T01:13:20;65331.03;;;19.55;92.33
41636;BME280;27623;51.966;4.602;2023-07-13T01:15:47;65353.91;;;19.58;92.50
41636;BME280;27623;51.966;4.602;2023-07-13T01:18:21;65344.78;;;19.68;92.03
41636;BME280;27623;51.966;4.602;2023-07-13T01:20:55;65357.59;;;19.59;92.94
41636;BME280;27623;51.966;4.602;2023-07-13T01:23:23;65315.41;;;19.46;93.43
41636;BME280;27623;51.966;4.602;2023-07-13T01:25:50;65326.78;;;19.54;93.14
41636;BME280;27623;51.966;4.602;2023-07-13T01:28:16;65326.00;;;19.58;93.09
41636;BME280;27623;51.966;4.602;2023-07-13T01:30:43;65335.38;;;19.43;93.14
41636;BME280;27623;51.966;4.602;2023-07-13T01:33:15;65332.34;;;19.52;92.68
41636;BME280;27623;51.966;4.602;2023-07-13T01:35:41;65330.25;;;19.36;92.84
41636;BME280;27623;51.966;4.602;2023-07-13T01:38:07;65342.78;;;19.38;92.95
41636;BME280;27623;51.966;4.602;2023-07-13T01:40:34;65333.50;;;19.22;93.66
41636;BME280;27623;51.966;4.602;2023-07-13T01:43:00;65279.00;;;19.27;93.22
41636;BME280;27623;51.966;4.602;2023-07-13T01:45:26;65319.13;;;19.40;92.05
41636;BME280;27623;51.966;4.602;2023-07-13T01:47:51;65319.13;;;19.40;91.59
41636;BME280;27623;51.966;4.602;2023-07-13T01:50:17;65333.72;;;19.41;91.44
41636;BME280;27623;51.966;4.602;2023-07-13T01:52:42;65311.06;;;19.35;89.07
41636;BME280;27623;51.966;4.602;2023-07-13T01:55:08;65306.03;;;19.37;88.35
41636;BME280;27623;51.966;4.602;2023-07-13T01:57:33;65343.56;;;19.34;89.45
41636;BME280;27623;51.966;4.602;2023-07-13T01:59:59;65337.78;;;19.40;89.50
41636;BME280;27623;51.966;4.602;2023-07-13T02:02:24;65274.75;;;19.08;91.23
41636;BME280;27623;51.966;4.602;2023-07-13T02:04:50;65303.91;;;19.28;90.16
41636;BME280;27623;51.966;4.602;2023-07-13T02:07:15;65332.50;;;19.31;89.34
41636;BME280;27623;51.966;4.602;2023-07-13T02:09:43;65328.75;;;19.37;87.42
41636;BME280;27623;51.966;4.602;2023-07-13T02:12:08;65312.94;;;19.32;87.30
41636;BME280;27623;51.966;4.602;2023-07-13T02:14:34;65270.16;;;19.26;87.09
41636;BME280;27623;51.966;4.602;2023-07-13T02:16:59;65244.56;;;18.97;86.19
41636;BME280;27623;51.966;4.602;2023-07-13T02:19:24;65266.88;;;18.99;86.36
41636;BME280;27623;51.966;4.602;2023-07-13T02:21:50;65284.56;;;19.01;86.58
41636;BME280;27623;51.966;4.602;2023-07-13T02:24:15;65275.50;;;19.04;86.71
41636;BME280;27623;51.966;4.602;2023-07-13T02:26:43;65286.00;;;19.07;86.83
41636;BME280;27623;51.966;4.602;2023-07-13T02:29:09;65269.75;;;18.87;88.47
41636;BME280;27623;51.966;4.602;2023-07-13T02:31:35;65259.72;;;18.92;88.63
41636;BME280;27623;51.966;4.602;2023-07-13T02:34:02;65238.84;;;18.73;90.35
41636;BME280;27623;51.966;4.602;2023-07-13T02:36:28;65242.75;;;18.93;89.45
41636;BME280;27623;51.966;4.602;2023-07-13T02:38:53;65251.16;;;19.03;89.38
41636;BME280;27623;51.966;4.602;2023-07-13T02:41:18;65261.75;;;18.92;90.61
41636;BME280;27623;51.966;4.602;2023-07-13T02:43:48;65276.88;;;18.94;90.83
41636;BME280;27623;51.966;4.602;2023-07-13T02:46:13;65272.44;;;18.97;90.86
41636;BME280;27623;51.966;4.602;2023-07-13T02:48:42;65257.38;;;18.87;92.32
41636;BME280;27623;51.966;4.602;2023-07-13T02:51:07;65254.31;;;18.80;92.65
41636;BME280;27623;51.966;4.602;2023-07-13T02:53:33;65215.94;;;18.78;93.45
41636;BME280;27623;51.966;4.602;2023-07-13T02:55:59;65232.50;;;18.86;93.16
41636;BME280;27623;51.966;4.602;2023-07-13T02:58:24;65245.31;;;18.93;93.42
41636;BME280;27623;51.966;4.602;2023-07-13T03:00:50;65283.53;;;18.93;93.68
41636;BME280;27623;51.966;4.602;2023-07-13T03:03:15;65274.53;;;18.89;94.63
41636;BME280;27623;51.966;4.602;2023-07-13T03:05:42;65264.84;;;18.75;95.80
41636;BME280;27623;51.966;4.602;2023-07-13T03:08:09;65246.97;;;18.71;96.93
41636;BME280;27623;51.966;4.602;2023-07-13T03:10:34;65297.88;;;18.75;97.16
41636;BME280;27623;51.966;4.602;2023-07-13T03:13:00;65223.75;;;18.71;97.16
41636;BME280;27623;51.966;4.602;2023-07-13T03:15:26;65242.06;;;18.66;98.34
41636;BME280;27623;51.966;4.602;2023-07-13T03:17:52;65228.91;;;18.71;98.01
41636;BME280;27623;51.966;4.602;2023-07-13T03:20:17;65227.91;;;18.55;99.99
41636;BME280;27623;51.966;4.602;2023-07-13T03:22:43;65241.19;;;18.53;99.98
41636;BME280;27623;51.966;4.602;2023-07-13T03:25:08;65193.59;;;18.36;100.00
41636;BME280;27623;51.966;4.602;2023-07-13T03:27:37;65152.81;;;18.19;100.00
41636;BME280;27623;51.966;4.602;2023-07-13T03:30:05;65182.38;;;18.30;100.00
41636;BME280;27623;51.966;4.602;2023-07-13T03:32:30;65195.06;;;18.35;100.00
41636;BME280;27623;51.966;4.602;2023-07-13T03:34:56;65211.22;;;18.45;100.00
41636;BME280;27623;51.966;4.602;2023-07-13T03:37:21;65225.28;;;18.39;100.00
41636;BME280;27623;51.966;4.602;2023-07-13T03:39:47;65233.69;;;18.49;100.00
41636;BME280;27623;51.966;4.602;2023-07-13T03:42:12;65265.97;;;18.45;100.00
41636;BME280;27623;51.966;4.602;2023-07-13T03:44:39;65197.56;;;18.49;100.00
41636;BME280;27623;51.966;4.602;2023-07-13T03:47:05;65191.22;;;18.31;100.00
41636;BME280;27623;51.966;4.602;2023-07-13T03:49:31;65253.00;;;18.52;100.00
41636;BME280;27623;51.966;4.602;2023-07-13T03:51:56;65220.38;;;18.51;100.00
41636;BME280;27623;51.966;4.602;2023-07-13T03:54:22;65205.84;;;18.49;100.00
41636;BME280;27623;51.966;4.602;2023-07-13T03:56:51;65253.56;;;18.53;100.00
41636;BME280;27623;51.966;4.602;2023-07-13T03:59:17;65249.09;;;18.56;100.00
41636;BME280;27623;51.966;4.602;2023-07-13T04:01:43;65176.78;;;18.39;100.00
41636;BME280;27623;51.966;4.602;2023-07-13T04:04:09;65194.97;;;18.49;100.00
41636;BME280;27623;51.966;4.602;2023-07-13T04:06:36;65195.84;;;18.31;100.00
41636;BME280;27623;51.966;4.602;2023-07-13T04:09:03;65197.59;;;18.42;100.00
41636;BME280;27623;51.966;4.602;2023-07-13T04:11:34;65191.22;;;18.31;100.00
41636;BME280;27623;51.966;4.602;2023-07-13T04:14:01;65225.22;;;18.46;100.00
41636;BME280;27623;51.966;4.602;2023-07-13T04:16:27;65202.56;;;18.46;100.00
41636;BME280;27623;51.966;4.602;2023-07-13T04:18:55;65240.66;;;18.53;100.00
41636;BME280;27623;51.966;4.602;2023-07-13T04:21:25;65224.50;;;18.43;100.00
41636;BME280;27623;51.966;4.602;2023-07-13T04:23:51;65204.59;;;18.46;100.00
41636;BME280;27623;51.966;4.602;2023-07-13T04:26:16;65206.66;;;18.38;100.00
41636;BME280;27623;51.966;4.602;2023-07-13T04:28:42;65236.69;;;18.40;100.00
41636;BME280;27623;51.966;4.602;2023-07-13T04:31:07;65209.19;;;18.22;100.00
41636;BME280;27623;51.966;4.602;2023-07-13T04:33:33;65169.44;;;18.13;100.00
41636;BME280;27623;51.966;4.602;2023-07-13T04:35:59;65155.22;;;17.93;100.00
41636;BME280;27623;51.966;4.602;2023-07-13T04:38:27;65148.25;;;18.13;100.00
41636;BME280;27623;51.966;4.602;2023-07-13T04:40:55;65187.78;;;18.26;100.00
41636;BME280;27623;51.966;4.602;2023-07-13T04:43:21;65151.94;;;18.14;100.00
41636;BME280;27623;51.966;4.602;2023-07-13T04:45:46;65196.50;;;18.17;100.00
41636;BME280;27623;51.966;4.602;2023-07-13T04:48:11;65175.81;;;18.24;100.00
41636;BME280;27623;51.966;4.602;2023-07-13T04:50:37;65210.06;;;18.27;100.00
41636;BME280;27623;51.966;4.602;2023-07-13T04:53:02;65195.25;;;18.37;100.00
41636;BME280;27623;51.966;4.602;2023-07-13T04:55:29;65230.28;;;18.36;100.00
41636;BME280;27623;51.966;4.602;2023-07-13T04:57:56;65204.91;;;18.27;100.00
41636;BME280;27623;51.966;4.602;2023-07-13T05:00:25;65211.56;;;18.26;100.00
41636;BME280;27623;51.966;4.602;2023-07-13T05:02:51;65171.75;;;18.25;100.00
41636;BME280;27623;51.966;4.602;2023-07-13T05:05:16;65224.91;;;18.41;100.00
41636;BME280;27623;51.966;4.602;2023-07-13T05:07:42;65216.09;;;18.57;100.00
41636;BME280;27623;51.966;4.602;2023-07-13T05:10:08;65201.63;;;18.48;100.00
41636;BME280;27623;51.966;4.602;2023-07-13T05:12:33;65239.41;;;18.49;100.00
41636;BME280;27623;51.966;4.602;2023-07-13T05:14:59;65233.03;;;18.63;100.00
41636;BME280;27623;51.966;4.602;2023-07-13T05:17:24;65236.19;;;18.63;100.00
41636;BME280;27623;51.966;4.602;2023-07-13T05:19:50;65231.50;;;18.71;100.00
41636;BME280;27623;51.966;4.602;2023-07-13T05:22:15;65279.06;;;18.72;100.00
41636;BME280;27623;51.966;4.602;2023-07-13T05:24:40;65249.41;;;18.68;100.00
41636;BME280;27623;51.966;4.602;2023-07-13T05:27:06;65226.31;;;18.71;100.00
41636;BME280;27623;51.966;4.602;2023-07-13T05:29:31;65288.41;;;18.80;100.00
41636;BME280;27623;51.966;4.602;2023-07-13T05:31:57;65256.66;;;18.84;100.00
41636;BME280;27623;51.966;4.602;2023-07-13T05:34:22;65275.47;;;18.87;100.00
41636;BME280;27623;51.966;4.602;2023-07-13T05:36:48;65264.19;;;18.89;100.00
41636;BME280;27623;51.966;4.602;2023-07-13T05:39:14;65281.56;;;18.86;100.00
41636;BME280;27623;51.966;4.602;2023-07-13T05:41:40;65268.16;;;18.78;100.00
41636;BME280;27623;51.966;4.602;2023-07-13T05:44:05;65284.91;;;18.82;100.00
41636;BME280;27623;51.966;4.602;2023-07-13T05:46:33;65265.91;;;18.83;100.00
41636;BME280;27623;51.966;4.602;2023-07-13T05:48:59;65268.88;;;18.81;100.00
41636;BME280;27623;51.966;4.602;2023-07-13T05:51:24;65301.34;;;18.80;100.00
41636;BME280;27623;51.966;4.602;2023-07-13T05:53:50;65228.59;;;18.66;100.00
41636;BME280;27623;51.966;4.602;2023-07-13T05:56:15;65257.88;;;18.71;100.00
41636;BME280;27623;51.966;4.602;2023-07-13T05:58:41;65232.34;;;18.52;100.00
41636;BME280;27623;51.966;4.602;2023-07-13T06:01:10;65194.47;;;18.41;100.00
41636;BME280;27623;51.966;4.602;2023-07-13T06:03:35;65170.06;;;18.07;100.00
41636;BME280;27623;51.966;4.602;2023-07-13T06:06:04;65117.63;;;17.70;100.00
41636;BME280;27623;51.966;4.602;2023-07-13T06:08:30;65182.28;;;17.97;100.00
41636;BME280;27623;51.966;4.602;2023-07-13T06:11:17;65181.78;;;18.13;100.00
41636;BME280;27623;51.966;4.602;2023-07-13T06:13:43;65242.03;;;18.11;100.00
41636;BME280;27623;51.966;4.602;2023-07-13T06:16:09;65166.69;;;18.11;100.00
41636;BME280;27623;51.966;4.602;2023-07-13T06:18:36;65148.53;;;17.77;100.00
41636;BME280;27623;51.966;4.602;2023-07-13T06:21:16;65117.72;;;17.56;100.00
41636;BME280;27623;51.966;4.602;2023-07-13T06:23:42;65070.72;;;17.39;100.00
41636;BME280;27623;51.966;4.602;2023-07-13T06:26:08;65103.41;;;17.50;100.00
41636;BME280;27623;51.966;4.602;2023-07-13T06:28:35;65083.16;;;17.24;100.00
41636;BME280;27623;51.966;4.602;2023-07-13T06:31:01;65083.97;;;17.13;100.00
41636;BME280;27623;51.966;4.602;2023-07-13T06:33:27;65056.72;;;17.14;100.00
41636;BME280;27623;51.966;4.602;2023-07-13T06:35:52;65063.88;;;17.21;100.00
41636;BME280;27623;51.966;4.602;2023-07-13T06:38:18;65076.63;;;17.35;100.00
41636;BME280;27623;51.966;4.602;2023-07-13T06:40:43;65087.34;;;17.26;100.00
41636;BME280;27623;51.966;4.602;2023-07-13T06:43:09;65106.53;;;17.50;100.00
41636;BME280;27623;51.966;4.602;2023-07-13T06:45:45;65130.56;;;17.63;100.00
41636;BME280;27623;51.966;4.602;2023-07-13T06:48:13;65110.13;;;17.66;100.00
41636;BME280;27623;51.966;4.602;2023-07-13T06:50:38;65113.03;;;17.71;100.00
41636;BME280;27623;51.966;4.602;2023-07-13T06:53:03;65156.25;;;17.77;100.00
41636;BME280;27623;51.966;4.602;2023-07-13T06:55:29;65151.72;;;17.95;100.00
41636;BME280;27623;51.966;4.602;2023-07-13T06:57:54;65185.94;;;17.98;100.00
41636;BME280;27623;51.966;4.602;2023-07-13T07:00:20;65163.63;;;18.03;100.00
41636;BME280;27623;51.966;4.602;2023-07-13T07:02:49;65185.34;;;18.04;100.00
41636;BME280;27623;51.966;4.602;2023-07-13T07:05:15;65160.13;;;18.05;100.00
41636;BME280;27623;51.966;4.602;2023-07-13T07:07:40;65168.66;;;18.17;100.00
41636;BME280;27623;51.966;4.602;2023-07-13T07:10:06;65225.16;;;18.29;100.00
41636;BME280;27623;51.966;4.602;2023-07-13T07:12:32;65207.75;;;18.39;100.00
41636;BME280;27623;51.966;4.602;2023-07-13T07:14:57;65231.53;;;18.40;100.00
41636;BME280;27623;51.966;4.602;2023-07-13T07:17:22;65230.59;;;18.41;100.00
41636;BME280;27623;51.966;4.602;2023-07-13T07:19:51;65207.59;;;18.37;100.00
41636;BME280;27623;51.966;4.602;2023-07-13T07:22:19;65267.94;;;18.52;100.00
41636;BME280;27623;51.966;4.602;2023-07-13T07:24:45;65267.00;;;18.61;100.00
41636;BME280;27623;51.966;4.602;2023-07-13T07:27:10;65286.94;;;18.81;100.00
41636;BME280;27623;51.966;4.602;2023-07-13T07:29:35;65281.72;;;18.88;100.00
41636;BME280;27623;51.966;4.602;2023-07-13T07:32:01;65322.13;;;18.90;100.00
41636;BME280;27623;51.966;4.602;2023-07-13T07:34:26;65278.63;;;18.81;100.00
41636;BME280;27623;51.966;4.602;2023-07-13T07:36:52;65282.59;;;18.70;100.00
41636;BME280;27623;51.966;4.602;2023-07-13T07:39:18;65227.53;;;18.58;100.00
41636;BME280;27623;51.966;4.602;2023-07-13T07:41:43;65211.72;;;18.29;100.00
41636;BME280;27623;51.966;4.602;2023-07-13T07:44:08;65212.00;;;18.41;100.00
41636;BME280;27623;51.966;4.602;2023-07-13T07:46:35;65237.59;;;18.45;100.00
41636;BME280;27623;51.966;4.602;2023-07-13T07:49:00;65223.28;;;18.32;100.00
41636;BME280;27623;51.966;4.602;2023-07-13T07:51:26;65244.78;;;18.45;100.00
41636;BME280;27623;51.966;4.602;2023-07-13T07:53:51;65264.56;;;18.63;100.00
41636;BME280;27623;51.966;4.602;2023-07-13T07:56:16;65258.19;;;18.76;100.00
41636;BME280;27623;51.966;4.602;2023-07-13T07:58:42;65295.28;;;18.75;100.00
41636;BME280;27623;51.966;4.602;2023-07-13T08:01:08;65257.47;;;18.73;100.00
41636;BME280;27623;51.966;4.602;2023-07-13T08:03:36;65254.81;;;18.64;100.00
41636;BME280;27623;51.966;4.602;2023-07-13T08:06:01;65280.56;;;18.71;100.00
41636;BME280;27623;51.966;4.602;2023-07-13T08:08:26;65306.78;;;18.93;100.00
41636;BME280;27623;51.966;4.602;2023-07-13T08:10:52;65296.91;;;19.07;100.00
41636;BME280;27623;51.966;4.602;2023-07-13T08:13:26;65338.28;;;19.24;100.00
41636;BME280;27623;51.966;4.602;2023-07-13T08:15:52;65356.94;;;19.25;100.00
41636;BME280;27623;51.966;4.602;2023-07-13T08:18:17;65339.66;;;19.37;100.00
41636;BME280;27623;51.966;4.602;2023-07-13T08:20:42;65370.25;;;19.46;100.00
41636;BME280;27623;51.966;4.602;2023-07-13T08:23:09;65372.66;;;19.44;99.59
41636;BME280;27623;51.966;4.602;2023-07-13T08:25:35;65342.56;;;19.42;95.56
41636;BME280;27623;51.966;4.602;2023-07-13T08:28:02;65357.44;;;19.32;94.39
41636;BME280;27623;51.966;4.602;2023-07-13T08:30:28;65343.78;;;19.29;96.26
41636;BME280;27623;51.966;4.602;2023-07-13T08:32:53;65376.94;;;19.38;99.62
41636;BME280;27623;51.966;4.602;2023-07-13T08:35:19;65344.81;;;19.37;100.00
41636;BME280;27623;51.966;4.602;2023-07-13T08:37:44;65323.03;;;19.36;100.00
41636;BME280;27623;51.966;4.602;2023-07-13T08:40:10;65336.25;;;19.25;100.00
41636;BME280;27623;51.966;4.602;2023-07-13T08:42:42;65323.16;;;19.22;100.00
41636;BME280;27623;51.966;4.602;2023-07-13T08:45:24;65320.19;;;19.24;100.00
41636;BME280;27623;51.966;4.602;2023-07-13T08:47:58;65364.16;;;19.17;100.00
41636;BME280;27623;51.966;4.602;2023-07-13T08:50:32;65275.72;;;19.00;100.00
41636;BME280;27623;51.966;4.602;2023-07-13T08:53:01;65326.84;;;18.99;100.00
41636;BME280;27623;51.966;4.602;2023-07-13T08:55:31;65278.31;;;18.76;100.00
41636;BME280;27623;51.966;4.602;2023-07-13T08:58:09;65277.97;;;18.71;100.00
41636;BME280;27623;51.966;4.602;2023-07-13T09:00:58;65246.97;;;18.71;100.00
41636;BME280;27623;51.966;4.602;2023-07-13T09:04:01;65280.72;;;18.97;100.00
41636;BME280;27623;51.966;4.602;2023-07-13T09:10:11;65371.38;;;19.40;100.00
41636;BME280;27623;51.966;4.602;2023-07-13T09:15:17;65340.88;;;19.24;94.85
41636;BME280;27623;51.966;4.602;2023-07-13T09:17:49;65334.22;;;19.01;87.41
41636;BME280;27623;51.966;4.602;2023-07-13T09:20:32;65202.25;;;18.34;90.60
41636;BME280;27623;51.966;4.602;2023-07-13T09:23:01;65251.75;;;18.49;94.08
41636;BME280;27623;51.966;4.602;2023-07-13T09:25:36;65241.91;;;18.33;97.33
41636;BME280;27623;51.966;4.602;2023-07-13T09:28:11;65228.41;;;18.39;100.00
41636;BME280;27623;51.966;4.602;2023-07-13T09:33:19;65245.41;;;18.31;100.00
41636;BME280;27623;51.966;4.602;2023-07-13T09:35:44;65199.25;;;18.19;99.85
41636;BME280;27623;51.966;4.602;2023-07-13T09:38:18;65228.03;;;18.10;100.00
41636;BME280;27623;51.966;4.602;2023-07-13T09:40:59;65226.31;;;18.23;100.00
41636;BME280;27623;51.966;4.602;2023-07-13T09:43:30;65239.31;;;18.33;100.00
41636;BME280;27623;51.966;4.602;2023-07-13T09:45:56;65279.19;;;18.50;100.00
41636;BME280;27623;51.966;4.602;2023-07-13T09:48:22;65278.59;;;18.64;100.00
41636;BME280;27623;51.966;4.602;2023-07-13T09:50:47;65301.72;;;18.78;100.00
41636;BME280;27623;51.966;4.602;2023-07-13T09:53:15;65287.16;;;18.77;100.00
41636;BME280;27623;51.966;4.602;2023-07-13T09:55:44;65313.50;;;19.08;100.00
41636;BME280;27623;51.966;4.602;2023-07-13T09:58:17;65353.97;;;19.27;100.00
41636;BME280;27623;51.966;4.602;2023-07-13T10:00:56;65364.41;;;19.60;100.00
41636;BME280;27623;51.966;4.602;2023-07-13T10:03:25;65414.53;;;19.75;100.00
41636;BME280;27623;51.966;4.602;2023-07-13T10:05:52;65399.09;;;19.68;100.00
41636;BME280;27623;51.966;4.602;2023-07-13T10:08:25;65398.75;;;19.63;100.00
41636;BME280;27623;51.966;4.602;2023-07-13T10:11:01;65398.66;;;19.53;98.61
41636;BME280;27623;51.966;4.602;2023-07-13T10:13:35;65386.47;;;19.49;100.00
41636;BME280;27623;51.966;4.602;2023-07-13T10:16:02;65357.47;;;19.49;100.00
41636;BME280;27623;51.966;4.602;2023-07-13T10:18:41;65376.50;;;19.47;100.00
41636;BME280;27623;51.966;4.602;2023-07-13T10:21:13;65407.72;;;19.74;98.62
41636;BME280;27623;51.966;4.602;2023-07-13T10:23:39;65430.22;;;20.02;98.25
41636;BME280;27623;51.966;4.602;2023-07-13T10:26:15;65448.66;;;20.07;95.54
41636;BME280;27623;51.966;4.602;2023-07-13T10:28:43;65497.44;;;20.33;94.21
41636;BME280;27623;51.966;4.602;2023-07-13T10:31:15;65505.94;;;20.59;93.80
41636;BME280;27623;51.966;4.602;2023-07-13T10:33:41;65556.47;;;20.80;92.71
41636;BME280;27623;51.966;4.602;2023-07-13T10:38:46;65585.75;;;20.76;85.31
41636;BME280;27623;51.966;4.602;2023-07-13T10:41:19;65570.09;;;20.90;84.93
41636;BME280;27623;51.966;4.602;2023-07-13T10:43:48;65565.88;;;21.05;85.99
41636;BME280;27623;51.966;4.602;2023-07-13T10:46:19;65648.22;;;21.36;83.65
41636;BME280;27623;51.966;4.602;2023-07-13T10:48:50;65609.50;;;21.38;80.86
41636;BME280;27623;51.966;4.602;2023-07-13T10:51:20;65662.50;;;21.56;76.10
41636;BME280;27623;51.966;4.602;2023-07-13T10:54:21;65714.28;;;21.70;74.81
41636;BME280;27623;51.966;4.602;2023-07-13T10:56:52;65725.16;;;22.02;75.80
41636;BME280;27623;51.966;4.602;2023-07-13T10:59:24;65662.00;;;21.48;73.75
41636;BME280;27623;51.966;4.602;2023-07-13T11:01:57;65635.72;;;21.26;72.45
41636;BME280;27623;51.966;4.602;2023-07-13T11:04:25;65657.75;;;21.47;74.41
41636;BME280;27623;51.966;4.602;2023-07-13T11:07:17;65666.09;;;21.71;70.07
41636;BME280;27623;51.966;4.602;2023-07-13T11:09:49;65649.25;;;21.68;67.33
41636;BME280;27623;51.966;4.602;2023-07-13T11:19:53;65755.63;;;22.15;58.99
41636;BME280;27623;51.966;4.602;2023-07-13T11:22:25;65755.63;;;22.15;60.39
41636;BME280;27623;51.966;4.602;2023-07-13T11:27:34;65816.91;;;22.55;60.79
41636;BME280;27623;51.966;4.602;2023-07-13T11:35:59;65842.19;;;22.92;59.91
41636;BME280;27623;51.966;4.602;2023-07-13T11:38:33;65853.06;;;22.83;57.54
41636;BME280;27623;51.966;4.602;2023-07-13T11:41:04;65827.69;;;22.93;57.28
41636;BME280;27623;51.966;4.602;2023-07-13T11:43:30;65859.56;;;23.20;56.84
41636;BME280;27623;51.966;4.602;2023-07-13T11:45:55;65888.13;;;23.27;54.83
41636;BME280;27623;51.966;4.602;2023-07-13T11:48:27;65901.06;;;23.35;53.46
41636;BME280;27623;51.966;4.602;2023-07-13T11:50:57;65901.94;;;23.40;54.55
41636;BME280;27623;51.966;4.602;2023-07-13T11:53:27;65891.53;;;23.40;53.21
41636;BME280;27623;51.966;4.602;2023-07-13T11:55:53;65906.19;;;23.42;51.67
41636;BME280;27623;51.966;4.602;2023-07-13T11:58:23;65876.84;;;23.22;51.88
41636;BME280;27623;51.966;4.602;2023-07-13T12:00:49;65908.97;;;23.44;52.95
41636;BME280;27623;51.966;4.602;2023-07-13T12:03:21;65962.41;;;23.74;52.97
41636;BME280;27623;51.966;4.602;2023-07-13T12:06:28;65971.44;;;23.85;53.40
41636;BME280;27623;51.966;4.602;2023-07-13T12:09:02;66005.25;;;24.09;53.98
41636;BME280;27623;51.966;4.602;2023-07-13T12:11:29;65971.91;;;23.92;52.67
41636;BME280;27623;51.966;4.602;2023-07-13T12:13:55;65979.88;;;23.95;50.98
41636;BME280;27623;51.966;4.602;2023-07-13T12:16:30;66006.94;;;23.86;51.01
41636;BME280;27623;51.966;4.602;2023-07-13T12:18:58;66033.16;;;24.29;53.25
41636;BME280;27623;51.966;4.602;2023-07-13T12:21:38;66091.25;;;24.66;52.39
41636;BME280;27623;51.966;4.602;2023-07-13T12:24:04;66099.97;;;24.72;52.79
41636;BME280;27623;51.966;4.602;2023-07-13T12:26:38;66143.09;;;25.02;52.81
41636;BME280;27623;51.966;4.602;2023-07-13T12:29:05;66155.19;;;25.20;51.36
41636;BME280;27623;51.966;4.602;2023-07-13T12:31:41;66197.22;;;25.32;51.86
41636;BME280;27623;51.966;4.602;2023-07-13T12:34:08;66133.59;;;25.00;51.19
41636;BME280;27623;51.966;4.602;2023-07-13T12:36:37;66073.97;;;24.64;52.36
41636;BME280;27623;51.966;4.602;2023-07-13T12:39:15;66105.69;;;24.55;52.83
41636;BME280;27623;51.966;4.602;2023-07-13T12:41:42;66057.53;;;24.52;51.10
41636;BME280;27623;51.966;4.602;2023-07-13T12:44:14;66056.66;;;24.63;52.59
41636;BME280;27623;51.966;4.602;2023-07-13T12:46:52;66142.38;;;24.75;51.57
41636;BME280;27623;51.966;4.602;2023-07-13T12:49:25;66113.81;;;24.84;50.28
41636;BME280;27623;51.966;4.602;2023-07-13T12:51:56;66079.03;;;24.79;51.07
41636;BME280;27623;51.966;4.602;2023-07-13T12:54:22;66048.91;;;24.56;52.04
41636;BME280;27623;51.966;4.602;2023-07-13T12:56:51;66112.47;;;24.88;49.89
41636;BME280;27623;51.966;4.602;2023-07-13T12:59:20;66109.00;;;24.99;49.53
41636;BME280;27623;51.966;4.602;2023-07-13T13:01:47;66118.34;;;24.98;49.49
41636;BME280;27623;51.966;4.602;2023-07-13T13:04:14;66151.06;;;25.04;48.10
41636;BME280;27623;51.966;4.602;2023-07-13T13:06:40;66112.47;;;24.88;48.30
41636;BME280;27623;51.966;4.602;2023-07-13T13:09:12;66089.44;;;24.79;48.23
41636;BME280;27623;51.966;4.602;2023-07-13T13:11:38;66146.19;;;25.09;48.08
41636;BME280;27623;51.966;4.602;2023-07-13T13:14:05;66146.25;;;25.19;46.78
41636;BME280;27623;51.966;4.602;2023-07-13T13:16:33;66169.19;;;25.18;47.26
41636;BME280;27623;51.966;4.602;2023-07-13T13:19:15;66203.72;;;25.52;47.54
41636;BME280;27623;51.966;4.602;2023-07-13T13:21:43;66185.63;;;25.55;45.66
41636;BME280;27623;51.966;4.602;2023-07-13T13:24:12;66254.31;;;25.84;45.37
41636;BME280;27623;51.966;4.602;2023-07-13T13:26:38;66215.28;;;25.53;44.93
41636;BME280;27623;51.966;4.602;2023-07-13T13:29:20;66263.59;;;25.90;44.11
41636;BME280;27623;51.966;4.602;2023-07-13T13:31:46;66223.56;;;25.61;42.72